This is the latest recevied weather packets stored in our database for station/object W0JRT-6. If no packets are shown the sender has not sent any weather packets the latest 10 day(s).
| Time | Temp. | Humidity | Pressure | Rain* | Wind** | Luminosity | Snow |
|---|---|---|---|---|---|---|---|
| 1777625408 | 2.78° C | 95% | 1019.7 hPa | 0 mm | - | - | - |
| 1777624808 | 2.78° C | 95% | 1019.6 hPa | 0 mm | - | - | - |
| 1777623608 | 3.33° C | 94% | 1019.7 hPa | 0 mm | - | - | - |
| 1777623009 | 3.33° C | 95% | 1019.8 hPa | 0 mm | - | - | - |
| 1777622408 | 3.33° C | 93% | 1019.7 hPa | 0 mm | - | - | - |
| 1777621812 | 3.33° C | 93% | 1019.7 hPa | 0 mm | - | - | - |
| 1777621208 | 3.89° C | 92% | 1019.7 hPa | 0 mm | - | - | - |
| 1777620610 | 3.89° C | 92% | 1019.7 hPa | 0 mm | - | - | - |
| 1777620008 | 4.44° C | 92% | 1019.7 hPa | 0 mm | - | - | - |
| 1777619409 | 4.44° C | 92% | 1019.7 hPa | 0 mm | - | - | - |
| 1777618204 | 5° C | 89% | 1019.6 hPa | 0 mm | - | - | - |
| 1777616402 | 5.56° C | 85% | 1019.2 hPa | 0 mm | - | - | - |
| 1777615804 | 6.11° C | 85% | 1019.1 hPa | 0 mm | - | - | - |
| 1777614612 | 6.67° C | 81% | 1018.9 hPa | 0 mm | - | - | - |
| 1777613398 | 8.33° C | 74% | 1018.5 hPa | 0 mm | - | - | - |
| 1777612798 | 8.33° C | 72% | 1018.3 hPa | 0 mm | - | - | - |
| 1777611601 | 9.44° C | 68% | 1018.1 hPa | 0 mm | - | - | - |
| 1777611006 | 9.44° C | 68% | 1017.9 hPa | 0 mm | - | - | - |
| 1777610408 | 9.44° C | 68% | 1017.9 hPa | 0 mm | - | - | - |
| 1777609806 | 10° C | 66% | 1017.8 hPa | 0 mm | - | - | - |
| 1777609209 | 10° C | 65% | 1017.8 hPa | 0 mm | - | - | - |
| 1777607412 | 10.56° C | 63% | 1017.6 hPa | 0 mm | - | - | - |
| 1777606198 | 10.56° C | 63% | 1017.3 hPa | 0 mm | - | - | - |
| 1777605603 | 10.56° C | 62% | 1017.1 hPa | 0 mm | - | - | - |
| 1777604998 | 11.11° C | 62% | 1016.8 hPa | 0 mm | - | - | - |
* Rain since midnight (hover to see other rain measurements)
** Current wind speed in m/s (hover to see current wind gust speed)